Time;durP1;ratioP1;P1;durP2;ratioP2;P2;SDS_P1;SDS_P2;PMS_P1;PMS_P2;Temp;Humidity;BMP_temperature;BMP_pressure;BME280_temperature;BME280_humidity;BME280_pressure;Samples;Min_cycle;Max_cycle;Signal;HPM_P1;HPM_P2
2021/12/27 00:00:18;;;;;;;12.18;5.57;;;6.50;90.60;;;;;;5052877;28;20025;-90
2021/12/27 00:02:45;;;;;;;25.75;7.00;;;6.40;90.00;;;;;;5048704;28;20040;-90
2021/12/27 00:05:11;;;;;;;26.73;9.45;;;;;;;;;;5066193;28;20037;-90
2021/12/27 00:07:37;;;;;;;17.27;8.55;;;;;;;;;;5063508;28;20037;-90
2021/12/27 00:10:04;;;;;;;8.25;5.07;;;6.30;91.30;;;;;;5069365;28;20025;-90
2021/12/27 00:12:31;;;;;;;11.88;5.38;;;;;;;;;;5072184;28;20024;-91
2021/12/27 00:14:56;;;;;;;10.57;5.90;;;;;;;;;;5052512;28;20106;-89
2021/12/27 00:17:22;;;;;;;15.82;6.10;;;;;;;;;;5067164;28;20686;-90
2021/12/27 00:19:49;;;;;;;8.60;4.05;;;;;;;;;;5064005;28;20025;-91
2021/12/27 00:22:15;;;;;;;5.80;3.40;;;;;;;;;;5074653;28;20025;-90
2021/12/27 00:24:46;;;;;;;4.65;3.20;;;;;;;;;;5053742;28;20081;-90
2021/12/27 00:27:12;;;;;;;8.13;3.10;;;;;;;;;;5062697;28;20158;-90
2021/12/27 00:29:38;;;;;;;10.93;4.53;;;;;;;;;;5072253;28;20119;-90
2021/12/27 00:32:04;;;;;;;14.65;5.35;;;;;;;;;;5071928;28;20042;-89
2021/12/27 00:34:30;;;;;;;10.05;4.45;;;;;;;;;;5046344;28;20112;-90
2021/12/27 00:36:56;;;;;;;5.22;3.72;;;;;;;;;;5069904;28;20087;-91
2021/12/27 00:39:22;;;;;;;9.45;4.57;;;;;;;;;;5071064;28;20025;-90
2021/12/27 00:41:48;;;;;;;10.60;4.85;;;;;;;;;;5060693;28;20108;-90
2021/12/27 00:44:14;;;;;;;9.93;4.07;;;;;;;;;;5070504;28;20115;-91
2021/12/27 00:46:40;;;;;;;8.90;5.40;;;;;;;;;;5073804;28;20051;-89
2021/12/27 00:49:06;;;;;;;7.03;3.88;;;;;;;;;;5074753;28;20064;-90
2021/12/27 00:51:32;;;;;;;8.85;4.28;;;;;;;;;;5076249;28;20020;-91
2021/12/27 00:53:58;;;;;;;11.60;4.82;;;;;;;;;;5074319;28;20036;-90
2021/12/27 00:56:24;;;;;;;9.65;4.07;;;;;;;;;;5074926;28;20032;-90
2021/12/27 00:58:50;;;;;;;10.15;5.18;;;;;;;;;;5067296;28;20052;-89
2021/12/27 01:01:16;;;;;;;10.77;3.97;;;;;;;;;;5071714;28;20033;-90
2021/12/27 01:03:42;;;;;;;3.83;3.10;;;;;;;;;;5074531;28;20024;-90
2021/12/27 01:06:08;;;;;;;7.38;4.25;;;;;;;;;;5068664;28;20020;-90
2021/12/27 01:08:36;;;;;;;6.43;3.40;;;;;;;;;;5071886;28;20063;-89
2021/12/27 01:11:13;;;;;;;9.68;4.30;;;;;;;;;;5063456;28;20029;-91
2021/12/27 01:13:43;;;;;;;7.43;4.28;;;;;;;;;;5069555;28;20111;-89
2021/12/27 01:16:11;;;;;;;6.47;4.40;;;6.40;90.10;;;;;;5075116;28;20040;-90
2021/12/27 01:18:48;;;;;;;7.10;5.82;;;6.40;89.30;;;;;;5075447;28;20037;-91
2021/12/27 01:21:16;;;;;;;5.63;4.18;;;6.40;89.50;;;;;;5037810;28;20025;-92
2021/12/27 01:23:42;;;;;;;9.63;4.15;;;;;;;;;;5044944;28;20047;-91
2021/12/27 01:26:08;;;;;;;8.82;5.43;;;;;;;;;;5075202;28;20074;-90
2021/12/27 01:28:35;;;;;;;8.68;4.50;;;;;;;;;;5074321;28;20474;-90
2021/12/27 01:31:01;;;;;;;9.15;4.60;;;;;;;;;;5071167;28;20437;-91
2021/12/27 01:33:27;;;;;;;4.75;3.50;;;;;;;;;;5071008;28;20033;-90
2021/12/27 01:35:54;;;;;;;7.60;4.30;;;6.60;90.90;;;;;;5074971;28;20489;-90
2021/12/27 01:38:20;;;;;;;6.03;4.25;;;;;;;;;;5042382;28;20020;-91
2021/12/27 01:40:48;;;;;;;2.88;2.33;;;;;;;;;;5068983;28;20032;-91
2021/12/27 01:43:26;;;;;;;7.07;3.63;;;6.60;91.20;;;;;;5075610;28;20020;-90
2021/12/27 01:45:59;;;;;;;6.20;3.42;;;6.50;90.80;;;;;;5054534;28;20501;-89
2021/12/27 01:48:30;;;;;;;10.95;5.43;;;6.50;90.40;;;;;;5049271;28;20032;-90
2021/12/27 01:50:57;;;;;;;10.90;5.85;;;;;;;;;;5052589;28;20530;-92
2021/12/27 01:53:24;;;;;;;13.68;5.15;;;;;;;;;;5063135;28;20032;-91
2021/12/27 01:55:51;;;;;;;5.25;3.75;;;6.50;90.70;;;;;;5066283;28;20052;-89
2021/12/27 01:58:18;;;;;;;7.80;3.28;;;6.50;90.90;;;;;;5067014;28;20397;-92
2021/12/27 02:00:48;;;;;;;6.45;3.47;;;6.40;90.80;;;;;;5056906;28;20027;-90
2021/12/27 02:03:16;;;;;;;7.32;3.17;;;6.30;91.10;;;;;;5057228;28;20059;-91
2021/12/27 02:05:42;;;;;;;;;;;6.40;91.00;;;;;;5039389;28;20402;-90
2021/12/27 02:08:08;;;;;;;5.45;2.38;;;;;;;;;;5083826;28;19966;-91
2021/12/27 02:10:34;;;;;;;5.78;2.75;;;;;;;;;;5070386;28;20469;-89
2021/12/27 02:13:00;;;;;;;4.68;2.22;;;6.40;91.40;;;;;;5056860;28;20036;-90
2021/12/27 02:15:26;;;;;;;3.47;1.83;;;;;;;;;;5056771;28;20017;-91
2021/12/27 02:17:52;;;;;;;1.92;1.67;;;;;;;;;;5056682;28;20021;-89
2021/12/27 02:20:31;;;;;;;1.73;1.63;;;6.40;92.10;;;;;;5074555;28;20032;-91
2021/12/27 02:23:01;;;;;;;9.00;2.92;;;;;;;;;;5047383;28;20489;-89
2021/12/27 02:25:29;;;;;;;4.18;3.20;;;6.50;99.90;;;;;;5064345;28;20040;-89
2021/12/27 02:27:55;;;;;;;5.95;4.07;;;;;;;;;;5054205;28;20052;-89
2021/12/27 02:30:22;;;;;;;14.63;4.97;;;;;;;;;;5073161;28;20024;-91
2021/12/27 02:32:50;;;;;;;9.30;4.43;;;;;;;;;;5071882;28;20078;-90
2021/12/27 02:35:21;;;;;;;6.45;3.45;;;;;;;;;;5059342;28;20033;-90
2021/12/27 02:37:47;;;;;;;14.02;4.97;;;;;;;;;;5048935;28;20115;-89
2021/12/27 02:40:13;;;;;;;6.68;3.40;;;;;;;;;;5053694;28;20048;-92
2021/12/27 02:43:00;;;;;;;5.95;3.05;;;6.40;90.90;;;;;;5072829;28;20108;-89
2021/12/27 02:45:28;;;;;;;8.07;3.90;;;6.50;90.80;;;;;;5074186;28;20378;-89
2021/12/27 02:47:54;;;;;;;5.25;2.92;;;;;;;;;;5073664;28;20067;-90
2021/12/27 02:50:21;;;;;;;2.70;2.35;;;;;;;;;;5072119;28;20159;-89
2021/12/27 02:52:47;;;;;;;6.03;3.05;;;;;;;;;;5066148;28;20058;-89
2021/12/27 02:55:15;;;;;;;5.07;2.13;;;6.50;91.20;;;;;;5083016;28;20100;-90
2021/12/27 02:57:41;;;;;;;4.82;2.60;;;;;;;;;;5055236;28;20029;-89
2021/12/27 03:00:11;;;;;;;3.67;1.77;;;;;;;;;;5056018;28;20021;-90
2021/12/27 03:02:37;;;;;;;9.60;2.03;;;;;;;;;;5072898;28;20477;-90
2021/12/27 03:05:04;;;;;;;2.40;2.03;;;;;;;;;;5062164;28;20029;-90
2021/12/27 03:07:29;;;;;;;2.92;2.13;;;;;;;;;;5061472;28;20028;-89
2021/12/27 03:09:58;;;;;;;3.25;2.15;;;;;;;;;;5073781;28;20025;-90
2021/12/27 03:12:24;;;;;;;11.95;3.30;;;;;;;;;;5064057;28;20119;-90
2021/12/27 03:14:50;;;;;;;10.68;2.88;;;;;;;;;;5053036;28;20513;-89
2021/12/27 03:17:16;;;;;;;10.85;4.07;;;;;;;;;;5066770;28;20020;-91
2021/12/27 03:19:42;;;;;;;12.88;3.42;;;;;;;;;;5073950;28;20378;-89
2021/12/27 03:22:08;;;;;;;4.45;3.25;;;;;;;;;;5072907;28;20054;-90
2021/12/27 03:24:34;;;;;;;6.65;3.78;;;;;;;;;;5072939;28;20049;-89
2021/12/27 03:27:00;;;;;;;3.42;2.85;;;;;;;;;;5035988;28;20036;-90
2021/12/27 03:29:26;;;;;;;5.43;3.65;;;;;;;;;;5073173;28;20036;-90
2021/12/27 03:31:55;;;;;;;4.53;2.60;;;;;;;;;;5073106;28;20032;-90
2021/12/27 03:34:21;;;;;;;4.07;2.38;;;;;;;;;;5073321;28;20060;-89
2021/12/27 03:36:48;;;;;;;7.38;3.38;;;;;;;;;;5054650;28;20038;-91
2021/12/27 03:39:14;;;;;;;6.38;2.92;;;;;;;;;;5069389;28;20028;-89
2021/12/27 03:41:40;;;;;;;4.60;3.17;;;;;;;;;;5072928;28;20025;-90
2021/12/27 03:44:06;;;;;;;3.30;2.05;;;;;;;;;;5073132;28;20447;-90
2021/12/27 03:46:32;;;;;;;6.07;2.38;;;;;;;;;;5073112;28;20042;-90
2021/12/27 03:48:58;;;;;;;4.97;3.38;;;;;;;;;;5072068;28;20044;-90
2021/12/27 03:51:24;;;;;;;3.80;2.72;;;;;;;;;;5092330;28;20016;-89
2021/12/27 03:53:50;;;;;;;7.97;3.10;;;;;;;;;;5053005;28;20029;-91
2021/12/27 03:56:17;;;;;;;5.97;3.50;;;;;;;;;;5054616;28;20024;-91
2021/12/27 03:58:59;;;;;;;4.90;2.90;;;;;;;;;;5069208;28;20090;-90
2021/12/27 04:01:26;;;;;;;4.82;3.22;;;;;;;;;;5065586;28;20036;-90
2021/12/27 04:03:54;;;;;;;6.28;3.72;;;6.50;90.90;;;;;;5058678;28;20103;-91
2021/12/27 04:06:22;;;;;;;5.60;3.65;;;6.60;90.70;;;;;;5055207;28;20036;-92
2021/12/27 04:08:47;;;;;;;;;;;6.60;90.50;;;;;;5073356;28;20063;-88
2021/12/27 04:11:14;;;;;;;4.60;3.22;;;;;;;;;;5088308;28;20807;-90
2021/12/27 04:13:40;;;;;;;6.72;2.75;;;;;;;;;;5072279;28;20115;-90
2021/12/27 04:16:07;;;;;;;10.18;4.35;;;;;;;;;;5068068;28;20057;-90
2021/12/27 04:18:33;;;;;;;6.03;3.67;;;;;;;;;;5051615;28;20025;-90
2021/12/27 04:20:59;;;;;;;8.48;3.33;;;;;;;;;;5076438;28;20074;-89
2021/12/27 04:23:25;;;;;;;10.55;3.80;;;;;;;;;;5069113;28;20049;-89
2021/12/27 04:25:51;;;;;;;7.72;4.15;;;;;;;;;;5051273;28;20043;-90
2021/12/27 04:28:19;;;;;;;9.32;4.93;;;;;;;;;;5070247;28;20047;-90
2021/12/27 04:30:45;;;;;;;8.10;4.63;;;;;;;;;;5075325;28;20014;-90
2021/12/27 04:33:11;;;;;;;13.00;5.60;;;;;;;;;;5075246;28;20066;-91
2021/12/27 04:35:38;;;;;;;9.43;5.00;;;;;;;;;;5058525;28;20028;-91
2021/12/27 04:38:04;;;;;;;7.63;3.53;;;;;;;;;;5073940;28;20492;-90
2021/12/27 04:40:31;;;;;;;4.15;2.47;;;;;;;;;;5076049;28;20029;-90
2021/12/27 04:43:03;;;;;;;5.88;3.45;;;;;;;;;;5058171;28;20864;-91
2021/12/27 04:45:29;;;;;;;8.65;3.50;;;;;;;;;;5064112;28;20099;-90
2021/12/27 04:47:55;;;;;;;3.78;2.88;;;6.30;99.90;;;;;;5072690;28;20040;-91
2021/12/27 04:50:23;;;;;;;3.95;3.13;;;;;;;;;;5071383;28;20039;-89
2021/12/27 04:52:52;;;;;;;6.68;3.28;;;;;;;;;;5073687;28;20025;-91
2021/12/27 04:55:19;;;;;;;4.25;2.97;;;;;;;;;;5073450;28;20111;-90
2021/12/27 04:57:45;;;;;;;8.98;3.20;;;;;;;;;;5072177;28;20046;-92
2021/12/27 05:00:11;;;;;;;4.90;3.20;;;;;;;;;;5054656;28;20017;-90
2021/12/27 05:02:37;;;;;;;8.07;3.10;;;;;;;;;;5072938;28;20032;-90
2021/12/27 05:05:03;;;;;;;7.45;3.65;;;6.40;92.70;;;;;;5074714;28;20124;-90
2021/12/27 05:07:29;;;;;;;13.30;4.10;;;;;;;;;;5075612;28;20028;-90
2021/12/27 05:09:55;;;;;;;5.57;2.80;;;;;;;;;;5056890;28;20047;-90
2021/12/27 05:12:21;;;;;;;10.88;4.47;;;;;;;;;;5076088;28;20027;-91
2021/12/27 05:14:47;;;;;;;5.43;3.42;;;;;;;;;;5056920;28;20112;-91
2021/12/27 05:17:13;;;;;;;4.20;2.47;;;;;;;;;;5070558;28;20024;-91
2021/12/27 05:19:39;;;;;;;4.88;2.95;;;;;;;;;;5065954;28;20052;-91
2021/12/27 05:22:05;;;;;;;3.08;2.42;;;;;;;;;;5059660;28;20041;-90
2021/12/27 05:24:31;;;;;;;5.97;3.17;;;;;;;;;;5041584;28;20083;-90
2021/12/27 05:26:57;;;;;;;6.07;3.28;;;;;;;;;;5034410;28;20104;-90
2021/12/27 05:29:23;;;;;;;10.93;3.80;;;;;;;;;;5035385;28;20120;-90
2021/12/27 05:31:50;;;;;;;7.32;3.50;;;;;;;;;;5035521;28;20029;-89
2021/12/27 05:34:16;;;;;;;8.18;4.43;;;;;;;;;;5035610;28;20029;-90
2021/12/27 05:36:43;;;;;;;4.57;2.33;;;;;;;;;;5035007;28;20140;-90
2021/12/27 05:39:16;;;;;;;6.03;3.72;;;6.60;92.90;;;;;;5034767;28;20021;-90
2021/12/27 05:41:42;;;;;;;6.00;4.18;;;;;;;;;;5032830;28;20037;-90
2021/12/27 05:44:08;;;;;;;5.47;3.55;;;;;;;;;;5034244;28;20025;-90
2021/12/27 05:46:34;;;;;;;7.18;3.63;;;;;;;;;;5030608;28;20030;-90
2021/12/27 05:49:00;;;;;;;12.02;3.05;;;;;;;;;;5033533;28;20098;-91
2021/12/27 05:51:26;;;;;;;6.07;3.35;;;;;;;;;;5035572;28;20037;-90
2021/12/27 05:53:52;;;;;;;4.32;2.95;;;;;;;;;;5032902;28;20099;-90
2021/12/27 05:56:19;;;;;;;3.67;3.08;;;;;;;;;;5019350;28;20080;-89
2021/12/27 05:58:45;;;;;;;8.82;5.00;;;;;;;;;;5031769;28;20028;-90
2021/12/27 06:01:11;;;;;;;9.43;3.63;;;;;;;;;;5033929;28;20057;-90
2021/12/27 06:03:36;;;;;;;5.97;3.85;;;;;;;;;;5033942;28;20099;-88
2021/12/27 06:06:03;;;;;;;3.95;2.92;;;;;;;;;;5015320;28;20487;-91
2021/12/27 06:08:28;;;;;;;5.22;3.00;;;;;;;;;;5030836;28;20026;-89
2021/12/27 06:10:54;;;;;;;14.60;4.25;;;;;;;;;;5023825;28;20105;-91
2021/12/27 06:13:20;;;;;;;4.38;2.70;;;;;;;;;;5027855;28;20475;-88
2021/12/27 06:15:46;;;;;;;5.50;3.33;;;;;;;;;;5015498;28;20053;-89
2021/12/27 06:18:12;;;;;;;10.98;3.42;;;;;;;;;;5018221;28;20484;-88
2021/12/27 06:20:38;;;;;;;5.10;3.00;;;;;;;;;;5034860;28;20041;-89
2021/12/27 06:23:04;;;;;;;6.47;3.63;;;;;;;;;;5035677;28;20427;-88
2021/12/27 06:25:30;;;;;;;3.70;2.30;;;;;;;;;;5074205;28;20060;-88
2021/12/27 06:27:58;;;;;;;6.85;3.67;;;;;;;;;;5040409;28;20036;-91
2021/12/27 06:30:24;;;;;;;5.15;3.08;;;;;;;;;;5074750;28;20031;-91
2021/12/27 06:32:50;;;;;;;5.30;3.90;;;;;;;;;;5037787;28;20037;-88
2021/12/27 06:35:17;;;;;;;6.20;3.60;;;;;;;;;;5071806;28;20036;-91
2021/12/27 06:37:44;;;;;;;8.00;4.65;;;6.90;92.60;;;;;;5073695;28;20554;-89
2021/12/27 06:40:11;;;;;;;;;;;6.90;92.70;;;;;;5056730;28;20048;-91
2021/12/27 06:42:37;;;;;;;3.67;2.45;;;;;;;;;;5055591;28;19908;-92
2021/12/27 06:45:03;;;;;;;8.20;3.80;;;;;;;;;;5056350;28;20021;-91
2021/12/27 06:47:30;;;;;;;11.00;4.03;;;;;;;;;;5068801;28;20115;-91
2021/12/27 06:49:56;;;;;;;7.05;4.43;;;;;;;;;;5072773;28;20029;-91
2021/12/27 06:52:23;;;;;;;7.82;4.30;;;;;;;;;;5069626;28;20100;-91
2021/12/27 06:54:49;;;;;;;10.23;4.13;;;;;;;;;;5073669;28;20032;-89
2021/12/27 06:57:17;;;;;;;6.63;3.92;;;;;;;;;;5056270;28;20127;-89
2021/12/27 06:59:43;;;;;;;11.93;4.95;;;;;;;;;;5069749;28;20381;-92
2021/12/27 07:02:09;;;;;;;8.38;4.90;;;;;;;;;;5069531;28;20033;-92
2021/12/27 07:04:35;;;;;;;13.65;6.43;;;;;;;;;;5074167;28;20020;-92
2021/12/27 07:07:01;;;;;;;7.72;4.68;;;;;;;;;;5071546;28;20377;-92
2021/12/27 07:09:27;;;;;;;7.60;4.30;;;;;;;;;;5036096;28;20029;-92
2021/12/27 07:11:53;;;;;;;6.32;3.78;;;;;;;;;;5072420;28;20423;-92
2021/12/27 07:14:19;;;;;;;17.73;5.30;;;;;;;;;;5068204;28;20028;-91
2021/12/27 07:16:45;;;;;;;11.52;4.60;;;;;;;;;;5073659;28;20021;-92
2021/12/27 07:19:11;;;;;;;10.20;5.68;;;;;;;;;;5069868;28;20490;-90
2021/12/27 07:21:37;;;;;;;13.70;4.93;;;;;;;;;;5055832;28;20024;-91
2021/12/27 07:24:03;;;;;;;3.15;1.75;;;;;;;;;;5038797;28;20059;-93
2021/12/27 07:26:29;;;;;;;2.58;1.63;;;;;;;;;;5065366;28;20115;-92
2021/12/27 07:28:57;;;;;;;2.45;1.92;;;;;;;;;;5048860;28;20053;-91
2021/12/27 07:31:23;;;;;;;6.00;1.90;;;;;;;;;;5077986;28;20386;-92
2021/12/27 07:33:49;;;;;;;4.72;2.78;;;;;;;;;;5071223;28;20043;-91
2021/12/27 07:36:15;;;;;;;3.40;2.03;;;;;;;;;;5073502;28;20037;-91
2021/12/27 07:38:42;;;;;;;2.95;1.67;;;;;;;;;;5067807;28;20017;-91
2021/12/27 07:41:08;;;;;;;3.40;1.98;;;;;;;;;;5062248;28;20112;-90
2021/12/27 07:43:34;;;;;;;4.13;1.48;;;;;;;;;;5073516;28;20033;-91
2021/12/27 07:46:00;;;;;;;2.53;1.17;;;;;;;;;;5055673;28;20131;-92
2021/12/27 07:48:26;;;;;;;5.78;2.22;;;;;;;;;;5073294;28;20671;-91
2021/12/27 07:50:52;;;;;;;3.47;1.65;;;;;;;;;;5089180;28;20028;-91
2021/12/27 07:53:18;;;;;;;2.85;2.45;;;;;;;;;;5073923;28;20017;-91
2021/12/27 07:55:44;;;;;;;2.58;1.17;;;;;;;;;;5073070;28;20021;-89
2021/12/27 07:58:10;;;;;;;3.50;1.80;;;;;;;;;;5072838;28;20024;-93
2021/12/27 08:00:36;;;;;;;1.58;1.40;;;;;;;;;;5073240;28;20046;-91
2021/12/27 08:03:03;;;;;;;3.47;1.65;;;;;;;;;;5073008;28;20020;-91
2021/12/27 08:05:29;;;;;;;5.53;1.63;;;;;;;;;;5071927;28;20550;-91
2021/12/27 08:07:55;;;;;;;0.80;0.80;;;;;;;;;;5055023;28;20047;-92
2021/12/27 08:10:21;;;;;;;0.73;0.73;;;;;;;;;;5055205;28;20035;-89
2021/12/27 08:12:47;;;;;;;3.20;1.98;;;;;;;;;;5053156;28;20516;-91
2021/12/27 08:15:13;;;;;;;1.50;0.98;;;;;;;;;;5052107;28;20033;-91
2021/12/27 08:17:40;;;;;;;1.00;0.90;;;;;;;;;;5069307;28;20048;-90
2021/12/27 08:20:07;;;;;;;1.90;1.43;;;;;;;;;;5050540;28;20024;-91
2021/12/27 08:22:33;;;;;;;0.63;0.63;;;;;;;;;;5054587;28;20048;-92
2021/12/27 08:24:59;;;;;;;1.67;0.88;;;;;;;;;;5068715;28;20338;-89
2021/12/27 08:27:27;;;;;;;0.65;0.65;;;8.80;97.40;;;;;;5061146;28;20500;-91
2021/12/27 08:29:53;;;;;;;1.02;0.88;;;;;;;;;;5059645;28;20044;-91
2021/12/27 08:32:19;;;;;;;4.30;1.10;;;;;;;;;;5060324;28;20033;-91
2021/12/27 08:34:45;;;;;;;1.80;1.63;;;;;;;;;;5048898;28;20024;-91
2021/12/27 08:37:11;;;;;;;1.20;1.08;;;8.80;97.40;;;;;;5057090;28;20541;-90
2021/12/27 08:39:38;;;;;;;2.25;1.42;;;;;;;;;;5071806;28;20041;-90
2021/12/27 08:42:07;;;;;;;2.60;0.80;;;;;;;;;;5064758;28;20032;-91
2021/12/27 08:44:33;;;;;;;1.17;0.80;;;;;;;;;;5051059;28;20036;-91
2021/12/27 08:46:59;;;;;;;5.53;1.92;;;;;;;;;;5046651;28;20119;-92
2021/12/27 08:49:25;;;;;;;2.05;1.08;;;;;;;;;;5072387;28;20111;-91
2021/12/27 08:51:51;;;;;;;1.02;1.00;;;;;;;;;;5072469;28;20474;-90
2021/12/27 08:54:17;;;;;;;1.15;1.10;;;;;;;;;;5071957;28;20052;-91
2021/12/27 08:56:43;;;;;;;2.10;1.30;;;;;;;;;;5071595;28;20119;-91
2021/12/27 08:59:10;;;;;;;2.60;1.55;;;;;;;;;;5065104;28;20052;-90
2021/12/27 09:01:36;;;;;;;2.80;1.00;;;;;;;;;;5062673;28;20056;-91
2021/12/27 09:04:04;;;;;;;2.70;1.75;;;;;;;;;;5059509;28;20032;-92
2021/12/27 09:06:30;;;;;;;4.63;1.25;;;;;;;;;;5055257;28;20025;-90
2021/12/27 09:08:56;;;;;;;1.42;1.25;;;;;;;;;;5051796;28;20106;-91
2021/12/27 09:11:22;;;;;;;0.65;0.55;;;;;;;;;;5090258;28;20649;-90
2021/12/27 09:13:48;;;;;;;0.60;0.60;;;;;;;;;;5083581;28;20119;-91
2021/12/27 09:16:14;;;;;;;0.60;0.60;;;;;;;;;;5075210;28;20063;-92
2021/12/27 09:18:40;;;;;;;1.48;1.00;;;;;;;;;;5059107;28;20028;-92
2021/12/27 09:21:07;;;;;;;1.15;0.90;;;;;;;;;;5074308;28;20024;-91
2021/12/27 09:23:33;;;;;;;0.55;0.55;;;;;;;;;;5056902;28;20137;-91
2021/12/27 09:25:59;;;;;;;0.40;0.40;;;;;;;;;;5072860;28;20388;-92
2021/12/27 09:28:25;;;;;;;0.40;0.40;;;;;;;;;;5074228;28;20025;-91
2021/12/27 09:30:51;;;;;;;1.02;0.68;;;;;;;;;;5075624;28;20032;-91
2021/12/27 09:33:17;;;;;;;1.67;0.70;;;;;;;;;;5076388;28;20025;-91
2021/12/27 09:35:43;;;;;;;0.47;0.47;;;;;;;;;;5057544;28;20078;-91
2021/12/27 09:38:11;;;;;;;2.30;0.93;;;;;;;;;;5075439;28;20023;-91
2021/12/27 09:40:37;;;;;;;1.67;0.70;;;;;;;;;;5075648;28;20033;-92
2021/12/27 09:43:03;;;;;;;0.75;0.75;;;;;;;;;;5058381;28;20031;-91
2021/12/27 09:45:29;;;;;;;0.82;0.80;;;;;;;;;;5057771;28;20094;-90
2021/12/27 09:47:55;;;;;;;0.47;0.47;;;;;;;;;;5074623;28;20473;-91
2021/12/27 09:50:27;;;;;;;0.40;0.40;;;;;;;;;;5075136;28;20029;-91
2021/12/27 09:52:53;;;;;;;0.50;0.50;;;;;;;;;;5064700;28;20021;-91
2021/12/27 09:55:19;;;;;;;0.40;0.40;;;;;;;;;;5074934;28;20040;-92
2021/12/27 09:57:45;;;;;;;0.45;0.40;;;;;;;;;;5075395;28;20028;-90
2021/12/27 10:00:12;;;;;;;0.75;0.32;;;;;;;;;;5075595;28;20031;-91
2021/12/27 10:02:39;;;;;;;0.98;0.50;;;9.50;95.70;;;;;;5052231;28;20021;-90
2021/12/27 10:05:05;;;;;;;1.40;0.85;;;;;;;;;;5069716;28;20027;-91
2021/12/27 10:07:33;;;;;;;0.40;0.40;;;;;;;;;;5074160;28;20043;-92
2021/12/27 10:09:59;;;;;;;;;;;;;;;;;;5057479;28;20118;-92
2021/12/27 10:12:29;;;;;;;0.50;0.50;;;9.40;96.20;;;;;;5074800;28;19904;-91
2021/12/27 10:14:58;;;;;;;0.40;0.40;;;9.40;96.10;;;;;;5055215;28;20025;-91
2021/12/27 10:17:25;;;;;;;0.40;0.40;;;;;;;;;;5046922;28;20032;-90
2021/12/27 10:19:51;;;;;;;0.40;0.40;;;;;;;;;;5047187;28;20112;-90
2021/12/27 10:22:18;;;;;;;0.40;0.40;;;;;;;;;;5051049;28;20032;-92
2021/12/27 10:24:45;;;;;;;0.40;0.40;;;;;;;;;;5073130;28;20045;-91
2021/12/27 10:27:11;;;;;;;0.60;0.60;;;;;;;;;;5064749;28;20040;-91
2021/12/27 10:29:38;;;;;;;0.50;0.50;;;;;;;;;;5056185;28;20106;-91
2021/12/27 10:32:18;;;;;;;0.50;0.47;;;;;;;;;;5074113;28;20397;-90
2021/12/27 10:34:52;;;;;;;0.50;0.50;;;9.60;95.00;;;;;;5064329;28;20032;-91
2021/12/27 10:37:22;;;;;;;0.93;0.60;;;;;;;;;;5056524;28;20035;-92
2021/12/27 10:40:09;;;;;;;0.38;0.38;;;9.60;94.80;;;;;;5072886;28;20474;-90
2021/12/27 10:42:35;;;;;;;;;;;;;;;;;;5060366;28;20040;-90
2021/12/27 10:45:03;;;;;;;0.50;0.50;;;9.60;94.10;;;;;;5056317;28;19915;-90
2021/12/27 10:47:46;;;;;;;0.40;0.40;;;9.60;94.20;;;;;;5065982;28;20028;-89
2021/12/27 10:50:12;;;;;;;1.45;0.90;;;;;;;;;;5043995;28;20083;-89
2021/12/27 10:52:44;;;;;;;3.33;0.93;;;;;;;;;;5060044;28;20052;-90
2021/12/27 10:55:12;;;;;;;2.95;1.20;;;9.60;94.60;;;;;;5074137;28;20109;-90
2021/12/27 10:57:38;;;;;;;2.28;1.00;;;;;;;;;;5073599;28;20020;-89
2021/12/27 11:00:30;;;;;;;0.70;0.70;;;9.70;94.20;;;;;;5073586;28;20535;-89
2021/12/27 11:02:59;;;;;;;0.88;0.88;;;9.80;99.90;;;;;;5060807;28;20040;-90
2021/12/27 11:05:26;;;;;;;1.20;0.95;;;;;;;;;;5073065;28;20025;-91
2021/12/27 11:07:54;;;;;;;0.85;0.65;;;9.80;94.30;;;;;;5072924;28;20511;-90
2021/12/27 11:10:21;;;;;;;0.52;0.52;;;;;;;;;;5055418;28;20036;-89
2021/12/27 11:12:49;;;;;;;2.87;0.80;;;9.80;94.30;;;;;;5073272;28;20025;-90
2021/12/27 11:15:15;;;;;;;0.75;0.75;;;;;;;;;;5073582;28;20082;-90
2021/12/27 11:17:44;;;;;;;0.82;0.82;;;9.80;94.10;;;;;;5064732;28;20448;-89
2021/12/27 11:20:12;;;;;;;0.98;0.85;;;9.90;94.20;;;;;;5072897;28;20107;-89
2021/12/27 11:22:43;;;;;;;0.80;0.80;;;9.90;94.10;;;;;;5055388;28;20513;-89
2021/12/27 11:25:23;;;;;;;1.40;1.30;;;;;;;;;;5050975;28;20056;-89
2021/12/27 11:27:49;;;;;;;2.42;1.35;;;;;;;;;;5069699;28;20021;-91
2021/12/27 11:30:22;;;;;;;2.47;0.98;;;;;;;;;;5073576;28;20397;-89
2021/12/27 11:33:01;;;;;;;1.33;1.20;;;;;;;;;;5064610;28;20043;-88
2021/12/27 11:35:57;;;;;;;0.95;0.60;;;10.10;94.20;;;;;;5054688;28;20119;-90
2021/12/27 11:38:32;;;;;;;0.77;0.70;;;;;;;;;;5054869;28;20068;-89
2021/12/27 11:40:59;;;;;;;0.82;0.60;;;;;;;;;;5068591;28;20024;-88
2021/12/27 11:43:49;;;;;;;0.95;0.68;;;10.30;93.90;;;;;;5071873;28;20488;-89
2021/12/27 11:46:15;;;;;;;0.80;0.80;;;;;;;;;;5048238;28;20029;-89
2021/12/27 11:48:48;;;;;;;0.30;0.30;;;10.40;93.10;;;;;;5068349;28;20501;-88
2021/12/27 11:51:15;;;;;;;0.45;0.45;;;10.60;92.70;;;;;;5069818;28;20055;-90
2021/12/27 11:53:41;;;;;;;0.40;0.40;;;;;;;;;;5063353;28;20482;-90
2021/12/27 11:56:11;;;;;;;0.30;0.30;;;;;;;;;;5068330;28;20075;-89
2021/12/27 11:58:44;;;;;;;0.43;0.43;;;10.70;92.50;;;;;;5073120;28;20032;-90
2021/12/27 12:01:22;;;;;;;0.65;0.50;;;;;;;;;;5065150;28;20032;-89
2021/12/27 12:03:49;;;;;;;0.82;0.45;;;;;;;;;;5073139;28;20025;-90
2021/12/27 12:06:44;;;;;;;1.17;0.85;;;10.70;93.20;;;;;;5055329;28;20031;-89
2021/12/27 12:09:20;;;;;;;1.27;0.90;;;10.70;93.00;;;;;;5035055;28;20066;-89
2021/12/27 12:11:46;;;;;;;1.88;1.27;;;;;;;;;;5048925;28;20033;-89
2021/12/27 12:14:31;;;;;;;0.83;0.77;;;10.80;93.10;;;;;;5064694;28;20025;-90
2021/12/27 12:16:59;;;;;;;1.25;1.15;;;;;;;;;;5059894;28;20066;-89
2021/12/27 12:19:54;;;;;;;0.70;0.70;;;10.70;92.90;;;;;;5054803;28;20039;-90
2021/12/27 12:22:42;;;;;;;2.58;1.38;;;;;;;;;;4976810;28;20070;-88
2021/12/27 12:25:20;;;;;;;3.10;1.45;;;10.60;93.50;;;;;;4990702;28;20449;-90
2021/12/27 12:27:53;;;;;;;1.75;1.02;;;;;;;;;;4972344;28;20029;-89
2021/12/27 12:30:20;;;;;;;1.48;0.88;;;;;;;;;;4989551;28;20031;-91
2021/12/27 12:32:58;;;;;;;0.70;0.70;;;;;;;;;;4990340;28;20039;-90
2021/12/27 12:35:37;;;;;;;1.20;0.73;;;;;;;;;;4990673;28;20030;-89
2021/12/27 12:38:16;;;;;;;2.75;1.02;;;11.00;93.80;;;;;;4987189;28;20027;-90
2021/12/27 12:40:43;;;;;;;0.38;0.38;;;11.10;93.20;;;;;;4982020;28;20073;-90
2021/12/27 12:43:09;;;;;;;;;;;11.30;92.80;;;;;;4995685;28;20503;-90
2021/12/27 12:45:37;;;;;;;0.43;0.43;;;;;;;;;;4979117;28;19928;-90
2021/12/27 12:48:03;;;;;;;0.40;0.40;;;;;;;;;;4995386;28;20041;-89
2021/12/27 12:50:29;;;;;;;0.40;0.40;;;;;;;;;;4975303;28;20123;-90
2021/12/27 12:52:55;;;;;;;0.32;0.32;;;;;;;;;;4988901;28;20085;-89
2021/12/27 12:55:33;;;;;;;0.55;0.43;;;11.70;91.80;;;;;;4982060;28;20037;-91
2021/12/27 12:57:59;;;;;;;0.60;0.60;;;;;;;;;;5010837;28;20036;-90
2021/12/27 13:00:27;;;;;;;0.98;0.47;;;11.70;92.00;;;;;;5057310;28;20035;-89
2021/12/27 13:02:53;;;;;;;0.40;0.40;;;;;;;;;;5074848;28;20028;-89
2021/12/27 13:05:20;;;;;;;0.43;0.43;;;;;;;;;;5062068;28;20079;-91
2021/12/27 13:07:49;;;;;;;1.50;0.80;;;12.00;91.40;;;;;;5049613;28;20112;-90
2021/12/27 13:10:23;;;;;;;0.52;0.52;;;;;;;;;;5076029;28;20028;-90
2021/12/27 13:12:50;;;;;;;0.57;0.57;;;12.10;90.90;;;;;;5057618;28;20111;-89
2021/12/27 13:15:17;;;;;;;0.47;0.40;;;;;;;;;;5058361;28;20078;-90
2021/12/27 13:17:44;;;;;;;2.20;1.10;;;12.30;90.60;;;;;;5054479;28;20032;-89
2021/12/27 13:20:14;;;;;;;0.57;0.57;;;;;;;;;;5063289;28;20074;-90
2021/12/27 13:22:55;;;;;;;0.65;0.65;;;12.20;90.70;;;;;;5049581;28;20503;-91
2021/12/27 13:25:37;;;;;;;0.93;0.55;;;12.10;90.90;;;;;;5074963;28;20044;-91
2021/12/27 13:28:05;;;;;;;4.80;0.68;;;12.10;91.20;;;;;;5054037;28;20064;-89
2021/12/27 13:30:31;;;;;;;0.85;0.60;;;;;;;;;;5055968;28;20100;-90
2021/12/27 13:32:57;;;;;;;0.82;0.80;;;;;;;;;;5073711;28;20024;-91
2021/12/27 13:35:23;;;;;;;0.60;0.60;;;;;;;;;;5075452;28;20028;-91
2021/12/27 13:37:49;;;;;;;0.70;0.70;;;;;;;;;;5075162;28;20397;-89
2021/12/27 13:40:17;;;;;;;4.20;0.73;;;;;;;;;;5056228;28;20025;-90
2021/12/27 13:42:43;;;;;;;0.88;0.77;;;;;;;;;;5071580;28;20043;-90
2021/12/27 13:45:09;;;;;;;1.65;0.80;;;;;;;;;;5073110;28;20121;-91
2021/12/27 13:47:35;;;;;;;1.15;0.90;;;;;;;;;;5057945;28;20163;-88
2021/12/27 13:50:01;;;;;;;1.58;1.13;;;;;;;;;;5070107;28;20033;-89
2021/12/27 13:52:27;;;;;;;1.17;0.70;;;;;;;;;;5061441;28;20512;-90
2021/12/27 13:54:54;;;;;;;0.98;0.70;;;11.80;92.70;;;;;;5074648;28;20013;-90
2021/12/27 13:57:43;;;;;;;1.85;1.08;;;11.70;91.90;;;;;;5074913;28;20056;-90
2021/12/27 14:00:10;;;;;;;6.13;2.17;;;;;;;;;;5072687;28;20485;-91
2021/12/27 14:02:41;;;;;;;1.35;0.60;;;;;;;;;;5075191;28;20481;-91
2021/12/27 14:05:07;;;;;;;0.82;0.77;;;;;;;;;;5073652;28;20031;-89
2021/12/27 14:07:33;;;;;;;1.42;1.15;;;;;;;;;;5074944;28;20033;-90
2021/12/27 14:10:00;;;;;;;1.08;0.80;;;;;;;;;;5056525;28;20523;-91
2021/12/27 14:12:30;;;;;;;0.68;0.68;;;;;;;;;;5074622;28;20020;-90
2021/12/27 14:15:01;;;;;;;3.00;1.05;;;;;;;;;;5045198;28;20038;-90
2021/12/27 14:17:28;;;;;;;1.63;0.95;;;11.00;93.80;;;;;;5074240;28;20055;-90
2021/12/27 14:20:11;;;;;;;4.38;1.60;;;11.00;93.40;;;;;;5056491;28;20536;-92
2021/12/27 14:22:41;;;;;;;2.38;0.77;;;11.10;99.90;;;;;;5074124;28;20045;-89